sensor_id;sensor_type;location;lat;lon;timestamp;pressure;altitude;pressure_sealevel;temperature;humidity
74627;BME280;63132;52.268;5.192;2023-07-13T00:00:53;101232.44;;;20.23;63.53
74627;BME280;63132;52.268;5.192;2023-07-13T00:03:18;101225.50;;;20.29;63.35
74627;BME280;63132;52.268;5.192;2023-07-13T00:05:43;101228.72;;;20.25;63.21
74627;BME280;63132;52.268;5.192;2023-07-13T00:08:09;101227.38;;;20.20;63.50
74627;BME280;63132;52.268;5.192;2023-07-13T00:10:40;101231.44;;;20.16;63.44
74627;BME280;63132;52.268;5.192;2023-07-13T00:13:07;101234.19;;;20.08;63.87
74627;BME280;63132;52.268;5.192;2023-07-13T00:15:32;101231.38;;;19.93;64.64
74627;BME280;63132;52.268;5.192;2023-07-13T00:17:57;101230.50;;;19.92;64.78
74627;BME280;63132;52.268;5.192;2023-07-13T00:20:24;101233.97;;;19.69;65.14
74627;BME280;63132;52.268;5.192;2023-07-13T00:22:53;101232.28;;;19.68;65.53
74627;BME280;63132;52.268;5.192;2023-07-13T00:25:20;101235.97;;;19.75;65.59
74627;BME280;63132;52.268;5.192;2023-07-13T00:27:47;101229.03;;;19.81;65.46
74627;BME280;63132;52.268;5.192;2023-07-13T00:30:14;101231.50;;;19.99;64.53
74627;BME280;63132;52.268;5.192;2023-07-13T00:32:40;101233.53;;;19.97;64.74
74627;BME280;63132;52.268;5.192;2023-07-13T00:35:06;101228.84;;;19.91;65.21
74627;BME280;63132;52.268;5.192;2023-07-13T00:37:32;101224.44;;;19.90;64.67
74627;BME280;63132;52.268;5.192;2023-07-13T00:39:59;101231.19;;;19.94;64.68
74627;BME280;63132;52.268;5.192;2023-07-13T00:42:24;101231.25;;;19.78;65.35
74627;BME280;63132;52.268;5.192;2023-07-13T00:47:36;101221.81;;;19.82;64.88
74627;BME280;63132;52.268;5.192;2023-07-13T00:50:03;101222.19;;;19.54;65.93
74627;BME280;63132;52.268;5.192;2023-07-13T00:52:30;101218.47;;;19.63;65.79
74627;BME280;63132;52.268;5.192;2023-07-13T00:54:57;101216.25;;;19.67;65.93
74627;BME280;63132;52.268;5.192;2023-07-13T00:57:23;101228.25;;;19.64;65.47
74627;BME280;63132;52.268;5.192;2023-07-13T00:59:53;101225.56;;;19.64;65.60
74627;BME280;63132;52.268;5.192;2023-07-13T01:02:19;101229.09;;;19.64;65.38
74627;BME280;63132;52.268;5.192;2023-07-13T01:04:45;101230.78;;;19.57;65.40
74627;BME280;63132;52.268;5.192;2023-07-13T01:07:11;101230.34;;;19.45;65.74
74627;BME280;63132;52.268;5.192;2023-07-13T01:09:37;101225.94;;;19.44;65.71
74627;BME280;63132;52.268;5.192;2023-07-13T01:12:03;101229.97;;;19.48;65.13
74627;BME280;63132;52.268;5.192;2023-07-13T01:14:28;101236.75;;;19.36;65.69
74627;BME280;63132;52.268;5.192;2023-07-13T01:16:54;101237.94;;;19.33;65.65
74627;BME280;63132;52.268;5.192;2023-07-13T01:22:01;101224.78;;;19.22;65.96
74627;BME280;63132;52.268;5.192;2023-07-13T01:24:27;101230.69;;;19.25;66.08
74627;BME280;63132;52.268;5.192;2023-07-13T01:26:52;101227.50;;;19.30;66.05
74627;BME280;63132;52.268;5.192;2023-07-13T01:29:17;101232.19;;;19.36;65.94
74627;BME280;63132;52.268;5.192;2023-07-13T01:31:43;101237.03;;;19.49;65.39
74627;BME280;63132;52.268;5.192;2023-07-13T01:34:10;101233.66;;;19.56;65.04
74627;BME280;63132;52.268;5.192;2023-07-13T01:36:35;101236.03;;;19.59;64.51
74627;BME280;63132;52.268;5.192;2023-07-13T01:39:01;101243.47;;;19.57;64.46
74627;BME280;63132;52.268;5.192;2023-07-13T01:41:27;101246.50;;;19.45;64.91
74627;BME280;63132;52.268;5.192;2023-07-13T01:43:52;101249.38;;;19.27;64.93
74627;BME280;63132;52.268;5.192;2023-07-13T01:46:17;101244.84;;;19.19;65.03
74627;BME280;63132;52.268;5.192;2023-07-13T01:48:43;101238.75;;;19.09;65.56
74627;BME280;63132;52.268;5.192;2023-07-13T01:51:08;101245.84;;;19.01;65.58
74627;BME280;63132;52.268;5.192;2023-07-13T01:53:33;101255.75;;;18.92;66.37
74627;BME280;63132;52.268;5.192;2023-07-13T01:55:59;101252.06;;;18.85;65.85
74627;BME280;63132;52.268;5.192;2023-07-13T01:58:24;101256.44;;;18.78;66.53
74627;BME280;63132;52.268;5.192;2023-07-13T02:00:51;101254.09;;;18.75;66.63
74627;BME280;63132;52.268;5.192;2023-07-13T02:03:16;101252.38;;;18.65;66.97
74627;BME280;63132;52.268;5.192;2023-07-13T02:05:44;101252.88;;;18.61;67.23
74627;BME280;63132;52.268;5.192;2023-07-13T02:08:09;101250.00;;;18.54;67.48
74627;BME280;63132;52.268;5.192;2023-07-13T02:10:34;101254.19;;;18.48;67.94
74627;BME280;63132;52.268;5.192;2023-07-13T02:13:00;101259.06;;;18.53;67.90
74627;BME280;63132;52.268;5.192;2023-07-13T02:15:25;101259.41;;;18.50;68.18
74627;BME280;63132;52.268;5.192;2023-07-13T02:17:50;101261.59;;;18.46;68.09
74627;BME280;63132;52.268;5.192;2023-07-13T02:20:16;101259.72;;;18.46;68.31
74627;BME280;63132;52.268;5.192;2023-07-13T02:22:41;101269.69;;;18.46;68.28
74627;BME280;63132;52.268;5.192;2023-07-13T02:25:07;101266.94;;;18.38;68.58
74627;BME280;63132;52.268;5.192;2023-07-13T02:27:32;101279.56;;;18.37;68.59
74627;BME280;63132;52.268;5.192;2023-07-13T02:29:57;101268.63;;;18.39;68.96
74627;BME280;63132;52.268;5.192;2023-07-13T02:32:23;101263.56;;;18.36;68.86
74627;BME280;63132;52.268;5.192;2023-07-13T02:34:50;101263.59;;;18.44;68.62
74627;BME280;63132;52.268;5.192;2023-07-13T02:37:15;101268.63;;;18.39;68.94
74627;BME280;63132;52.268;5.192;2023-07-13T02:39:40;101267.16;;;18.53;68.44
74627;BME280;63132;52.268;5.192;2023-07-13T02:42:06;101261.56;;;18.38;68.87
74627;BME280;63132;52.268;5.192;2023-07-13T02:44:32;101273.66;;;18.33;69.42
74627;BME280;63132;52.268;5.192;2023-07-13T02:46:57;101277.25;;;18.07;70.31
74627;BME280;63132;52.268;5.192;2023-07-13T02:49:22;101266.44;;;18.34;69.94
74627;BME280;63132;52.268;5.192;2023-07-13T02:51:48;101281.94;;;18.40;69.48
74627;BME280;63132;52.268;5.192;2023-07-13T02:54:13;101279.44;;;18.47;69.59
74627;BME280;63132;52.268;5.192;2023-07-13T02:56:39;101272.38;;;18.54;69.46
74627;BME280;63132;52.268;5.192;2023-07-13T02:59:04;101262.63;;;18.62;68.68
74627;BME280;63132;52.268;5.192;2023-07-13T03:01:30;101276.25;;;18.60;69.20
74627;BME280;63132;52.268;5.192;2023-07-13T03:03:58;101264.66;;;18.60;69.18
74627;BME280;63132;52.268;5.192;2023-07-13T03:06:23;101270.06;;;18.60;68.91
74627;BME280;63132;52.268;5.192;2023-07-13T03:08:49;101271.72;;;18.61;69.18
74627;BME280;63132;52.268;5.192;2023-07-13T03:11:18;101269.34;;;18.49;69.41
74627;BME280;63132;52.268;5.192;2023-07-13T03:13:44;101268.78;;;18.37;69.91
74627;BME280;63132;52.268;5.192;2023-07-13T03:16:10;101275.38;;;18.43;69.98
74627;BME280;63132;52.268;5.192;2023-07-13T03:18:36;101279.69;;;18.27;70.05
74627;BME280;63132;52.268;5.192;2023-07-13T03:21:02;101276.69;;;18.30;68.88
74627;BME280;63132;52.268;5.192;2023-07-13T03:23:27;101277.56;;;18.39;68.53
74627;BME280;63132;52.268;5.192;2023-07-13T03:26:03;101271.00;;;18.50;67.92
74627;BME280;63132;52.268;5.192;2023-07-13T03:28:29;101266.94;;;18.38;67.97
74627;BME280;63132;52.268;5.192;2023-07-13T03:31:09;101268.34;;;18.58;66.92
74627;BME280;63132;52.268;5.192;2023-07-13T03:33:35;101275.25;;;18.53;66.87
74627;BME280;63132;52.268;5.192;2023-07-13T03:36:02;101284.47;;;18.42;67.28
74627;BME280;63132;52.268;5.192;2023-07-13T03:38:27;101284.66;;;18.49;67.35
74627;BME280;63132;52.268;5.192;2023-07-13T03:40:53;101284.00;;;18.55;67.16
74627;BME280;63132;52.268;5.192;2023-07-13T03:43:18;101285.53;;;18.66;66.41
74627;BME280;63132;52.268;5.192;2023-07-13T03:45:45;101291.38;;;18.44;66.81
74627;BME280;63132;52.268;5.192;2023-07-13T03:48:10;101287.25;;;18.67;66.33
74627;BME280;63132;52.268;5.192;2023-07-13T03:50:36;101279.50;;;18.72;66.39
74627;BME280;63132;52.268;5.192;2023-07-13T03:53:01;101290.44;;;18.79;66.25
74627;BME280;63132;52.268;5.192;2023-07-13T03:55:26;101288.63;;;18.88;65.78
74627;BME280;63132;52.268;5.192;2023-07-13T03:57:59;101289.97;;;18.92;65.81
74627;BME280;63132;52.268;5.192;2023-07-13T04:00:25;101297.03;;;18.85;65.92
74627;BME280;63132;52.268;5.192;2023-07-13T04:02:51;101293.31;;;18.77;66.66
74627;BME280;63132;52.268;5.192;2023-07-13T04:05:16;101299.38;;;18.79;66.51
74627;BME280;63132;52.268;5.192;2023-07-13T04:07:42;101300.06;;;18.98;65.93
74627;BME280;63132;52.268;5.192;2023-07-13T04:10:08;101298.91;;;18.84;66.41
74627;BME280;63132;52.268;5.192;2023-07-13T04:12:33;101304.47;;;18.99;65.95
74627;BME280;63132;52.268;5.192;2023-07-13T04:14:58;101310.19;;;19.04;65.80
74627;BME280;63132;52.268;5.192;2023-07-13T04:17:24;101308.53;;;19.03;66.15
74627;BME280;63132;52.268;5.192;2023-07-13T04:19:49;101305.69;;;19.30;64.98
74627;BME280;63132;52.268;5.192;2023-07-13T04:22:14;101313.94;;;19.28;65.69
74627;BME280;63132;52.268;5.192;2023-07-13T04:24:40;101314.97;;;19.27;65.80
74627;BME280;63132;52.268;5.192;2023-07-13T04:27:06;101314.97;;;19.36;65.50
74627;BME280;63132;52.268;5.192;2023-07-13T04:29:31;101306.53;;;19.31;65.67
74627;BME280;63132;52.268;5.192;2023-07-13T04:31:56;101307.69;;;19.36;65.53
74627;BME280;63132;52.268;5.192;2023-07-13T04:34:22;101321.53;;;19.33;65.85
74627;BME280;63132;52.268;5.192;2023-07-13T04:36:49;101324.25;;;19.16;66.30
74627;BME280;63132;52.268;5.192;2023-07-13T04:39:15;101328.78;;;19.33;65.76
74627;BME280;63132;52.268;5.192;2023-07-13T04:41:40;101324.59;;;19.30;65.57
74627;BME280;63132;52.268;5.192;2023-07-13T04:44:05;101331.81;;;19.21;66.39
74627;BME280;63132;52.268;5.192;2023-07-13T04:46:31;101332.81;;;19.28;66.13
74627;BME280;63132;52.268;5.192;2023-07-13T04:48:56;101326.25;;;19.23;66.01
74627;BME280;63132;52.268;5.192;2023-07-13T04:51:23;101331.31;;;19.43;66.07
74627;BME280;63132;52.268;5.192;2023-07-13T04:53:48;101330.97;;;19.29;66.53
74627;BME280;63132;52.268;5.192;2023-07-13T04:56:14;101327.59;;;19.35;66.37
74627;BME280;63132;52.268;5.192;2023-07-13T04:58:39;101329.28;;;19.45;66.18
74627;BME280;63132;52.268;5.192;2023-07-13T05:01:05;101328.97;;;19.39;66.78
74627;BME280;63132;52.268;5.192;2023-07-13T05:03:31;101333.50;;;19.64;66.33
74627;BME280;63132;52.268;5.192;2023-07-13T05:05:58;101342.75;;;19.78;65.91
74627;BME280;63132;52.268;5.192;2023-07-13T05:08:24;101338.22;;;19.70;66.24
74627;BME280;63132;52.268;5.192;2023-07-13T05:10:51;101341.78;;;19.62;66.89
74627;BME280;63132;52.268;5.192;2023-07-13T05:13:16;101341.06;;;19.77;66.49
74627;BME280;63132;52.268;5.192;2023-07-13T05:15:41;101347.41;;;20.01;65.73
74627;BME280;63132;52.268;5.192;2023-07-13T05:18:07;101350.81;;;19.95;66.02
74627;BME280;63132;52.268;5.192;2023-07-13T05:20:32;101352.34;;;20.14;65.25
74627;BME280;63132;52.268;5.192;2023-07-13T05:22:57;101349.94;;;20.19;65.02
74627;BME280;63132;52.268;5.192;2023-07-13T05:25:23;101347.09;;;19.96;66.09
74627;BME280;63132;52.268;5.192;2023-07-13T05:27:48;101353.34;;;19.88;66.61
74627;BME280;63132;52.268;5.192;2023-07-13T05:30:14;101355.34;;;20.19;66.17
74627;BME280;63132;52.268;5.192;2023-07-13T05:32:39;101348.81;;;20.45;65.08
74627;BME280;63132;52.268;5.192;2023-07-13T05:35:05;101361.44;;;20.62;64.78
74627;BME280;63132;52.268;5.192;2023-07-13T05:37:31;101363.09;;;20.63;64.55
74627;BME280;63132;52.268;5.192;2023-07-13T05:39:56;101357.94;;;20.85;64.34
74627;BME280;63132;52.268;5.192;2023-07-13T05:42:22;101366.72;;;20.87;64.04
74627;BME280;63132;52.268;5.192;2023-07-13T05:44:47;101369.75;;;20.84;64.50
74627;BME280;63132;52.268;5.192;2023-07-13T05:47:12;101364.31;;;20.92;64.04
74627;BME280;63132;52.268;5.192;2023-07-13T05:49:40;101363.69;;;21.37;62.98
74627;BME280;63132;52.268;5.192;2023-07-13T05:52:05;101369.59;;;21.56;62.29
74627;BME280;63132;52.268;5.192;2023-07-13T05:54:31;101376.53;;;21.58;61.64
74627;BME280;63132;52.268;5.192;2023-07-13T05:56:56;101381.75;;;21.83;61.52
74627;BME280;63132;52.268;5.192;2023-07-13T05:59:22;101372.75;;;21.44;62.09
74627;BME280;63132;52.268;5.192;2023-07-13T06:01:47;101373.25;;;21.24;62.78
74627;BME280;63132;52.268;5.192;2023-07-13T06:04:12;101376.44;;;21.28;62.94
74627;BME280;63132;52.268;5.192;2023-07-13T06:06:38;101373.44;;;21.61;62.52
74627;BME280;63132;52.268;5.192;2023-07-13T06:09:03;101376.53;;;21.58;62.39
74627;BME280;63132;52.268;5.192;2023-07-13T06:11:29;101381.25;;;21.80;62.24
74627;BME280;63132;52.268;5.192;2023-07-13T06:13:55;101391.19;;;21.87;61.89
74627;BME280;63132;52.268;5.192;2023-07-13T06:16:22;101390.94;;;22.13;61.45
74627;BME280;63132;52.268;5.192;2023-07-13T06:18:48;101383.00;;;22.26;60.57
74627;BME280;63132;52.268;5.192;2023-07-13T06:21:19;101397.19;;;22.28;60.13
74627;BME280;63132;52.268;5.192;2023-07-13T06:23:46;101392.06;;;22.18;60.29
74627;BME280;63132;52.268;5.192;2023-07-13T06:26:15;101389.72;;;22.15;60.32
74627;BME280;63132;52.268;5.192;2023-07-13T06:28:41;101383.81;;;21.81;61.21
74627;BME280;63132;52.268;5.192;2023-07-13T06:31:08;101385.78;;;21.87;61.42
74627;BME280;63132;52.268;5.192;2023-07-13T06:33:33;101388.38;;;21.96;61.31
74627;BME280;63132;52.268;5.192;2023-07-13T06:35:59;101393.84;;;22.41;60.30
74627;BME280;63132;52.268;5.192;2023-07-13T06:38:24;101400.00;;;22.50;59.99
74627;BME280;63132;52.268;5.192;2023-07-13T06:40:50;101397.84;;;22.30;60.08
74627;BME280;63132;52.268;5.192;2023-07-13T06:43:15;101397.38;;;22.87;58.65
74627;BME280;63132;52.268;5.192;2023-07-13T06:45:45;101397.56;;;23.08;57.81
74627;BME280;63132;52.268;5.192;2023-07-13T06:48:13;101405.13;;;23.12;57.74
74627;BME280;63132;52.268;5.192;2023-07-13T06:50:45;101404.63;;;23.96;55.62
74627;BME280;63132;52.268;5.192;2023-07-13T06:53:11;101402.84;;;24.39;54.59
74627;BME280;63132;52.268;5.192;2023-07-13T06:55:37;101396.75;;;24.02;54.36
74627;BME280;63132;52.268;5.192;2023-07-13T06:58:03;101400.09;;;24.04;54.59
74627;BME280;63132;52.268;5.192;2023-07-13T07:00:29;101403.09;;;23.87;56.68
74627;BME280;63132;52.268;5.192;2023-07-13T07:02:54;101416.38;;;22.72;60.48
74627;BME280;63132;52.268;5.192;2023-07-13T07:05:19;101422.81;;;22.56;61.47
74627;BME280;63132;52.268;5.192;2023-07-13T07:07:50;101420.13;;;21.63;63.51
74627;BME280;63132;52.268;5.192;2023-07-13T07:10:15;101423.25;;;21.05;62.39
74627;BME280;63132;52.268;5.192;2023-07-13T07:12:41;101420.06;;;20.93;63.40
74627;BME280;63132;52.268;5.192;2023-07-13T07:15:06;101430.19;;;20.59;63.23
74627;BME280;63132;52.268;5.192;2023-07-13T07:17:32;101456.53;;;20.65;63.82
74627;BME280;63132;52.268;5.192;2023-07-13T07:19:57;101486.09;;;18.98;66.77
74627;BME280;63132;52.268;5.192;2023-07-13T07:22:22;101475.41;;;19.23;69.62
74627;BME280;63132;52.268;5.192;2023-07-13T07:24:48;101475.88;;;18.75;68.14
74627;BME280;63132;52.268;5.192;2023-07-13T07:27:13;101468.84;;;18.83;68.89
74627;BME280;63132;52.268;5.192;2023-07-13T07:29:38;101462.34;;;19.02;68.28
74627;BME280;63132;52.268;5.192;2023-07-13T07:32:04;101463.19;;;19.02;67.36
74627;BME280;63132;52.268;5.192;2023-07-13T07:34:30;101467.03;;;19.35;67.67
74627;BME280;63132;52.268;5.192;2023-07-13T07:36:59;101460.81;;;19.59;67.69
74627;BME280;63132;52.268;5.192;2023-07-13T07:39:26;101464.22;;;19.70;67.43
74627;BME280;63132;52.268;5.192;2023-07-13T07:41:51;101453.22;;;20.30;65.85
74627;BME280;63132;52.268;5.192;2023-07-13T07:44:16;101451.44;;;20.62;65.43
74627;BME280;63132;52.268;5.192;2023-07-13T07:46:42;101457.13;;;20.76;64.57
74627;BME280;63132;52.268;5.192;2023-07-13T07:49:07;101455.31;;;20.68;65.73
74627;BME280;63132;52.268;5.192;2023-07-13T07:51:32;101456.34;;;21.15;64.14
74627;BME280;63132;52.268;5.192;2023-07-13T07:53:58;101455.38;;;20.91;65.23
74627;BME280;63132;52.268;5.192;2023-07-13T07:56:23;101452.09;;;20.73;65.63
74627;BME280;63132;52.268;5.192;2023-07-13T07:58:48;101451.13;;;20.57;65.23
74627;BME280;63132;52.268;5.192;2023-07-13T08:01:14;101454.44;;;20.76;64.65
74627;BME280;63132;52.268;5.192;2023-07-13T08:03:39;101460.00;;;20.82;65.11
74627;BME280;63132;52.268;5.192;2023-07-13T08:06:04;101460.44;;;21.03;65.43
74627;BME280;63132;52.268;5.192;2023-07-13T08:08:30;101454.06;;;21.51;64.72
74627;BME280;63132;52.268;5.192;2023-07-13T08:10:55;101449.09;;;22.02;64.43
74627;BME280;63132;52.268;5.192;2023-07-13T08:13:20;101445.34;;;22.26;64.32
74627;BME280;63132;52.268;5.192;2023-07-13T08:15:46;101449.06;;;22.55;63.88
74627;BME280;63132;52.268;5.192;2023-07-13T08:18:12;101444.56;;;22.47;63.99
74627;BME280;63132;52.268;5.192;2023-07-13T08:20:40;101444.88;;;23.20;63.96
74627;BME280;63132;52.268;5.192;2023-07-13T08:23:09;101445.09;;;23.40;63.15
74627;BME280;63132;52.268;5.192;2023-07-13T08:25:35;101453.13;;;23.49;61.75
74627;BME280;63132;52.268;5.192;2023-07-13T08:28:01;101447.00;;;23.91;61.49
74627;BME280;63132;52.268;5.192;2023-07-13T08:30:27;101443.50;;;23.46;61.40
74627;BME280;63132;52.268;5.192;2023-07-13T08:32:54;101447.06;;;23.32;61.72
74627;BME280;63132;52.268;5.192;2023-07-13T08:35:19;101447.38;;;22.85;61.51
74627;BME280;63132;52.268;5.192;2023-07-13T08:37:45;101450.28;;;22.83;61.27
74627;BME280;63132;52.268;5.192;2023-07-13T08:40:11;101456.19;;;22.87;61.82
74627;BME280;63132;52.268;5.192;2023-07-13T08:42:40;101465.34;;;22.86;62.16
74627;BME280;63132;52.268;5.192;2023-07-13T08:45:43;101459.75;;;22.72;59.84
74627;BME280;63132;52.268;5.192;2023-07-13T08:48:14;101469.53;;;22.28;61.12
74627;BME280;63132;52.268;5.192;2023-07-13T08:53:22;101473.25;;;22.27;61.32
74627;BME280;63132;52.268;5.192;2023-07-13T08:55:55;101467.34;;;22.08;59.99
74627;BME280;63132;52.268;5.192;2023-07-13T08:58:23;101471.41;;;21.65;61.73
74627;BME280;63132;52.268;5.192;2023-07-13T09:01:04;101464.81;;;22.06;61.07
74627;BME280;63132;52.268;5.192;2023-07-13T09:03:41;101464.31;;;22.26;60.38
74627;BME280;63132;52.268;5.192;2023-07-13T09:06:10;101466.84;;;22.43;59.99
74627;BME280;63132;52.268;5.192;2023-07-13T09:08:51;101471.34;;;23.33;58.45
74627;BME280;63132;52.268;5.192;2023-07-13T09:16:46;101474.53;;;23.59;56.36
74627;BME280;63132;52.268;5.192;2023-07-13T09:19:19;101470.28;;;22.82;58.90
74627;BME280;63132;52.268;5.192;2023-07-13T09:21:45;101470.59;;;22.87;57.30
74627;BME280;63132;52.268;5.192;2023-07-13T09:26:56;101479.75;;;22.71;57.87
74627;BME280;63132;52.268;5.192;2023-07-13T09:29:32;101487.16;;;22.77;57.36
74627;BME280;63132;52.268;5.192;2023-07-13T09:32:00;101488.56;;;22.19;58.65
74627;BME280;63132;52.268;5.192;2023-07-13T09:34:27;101484.22;;;21.95;60.52
74627;BME280;63132;52.268;5.192;2023-07-13T09:36:55;101484.00;;;22.20;60.79
74627;BME280;63132;52.268;5.192;2023-07-13T09:39:33;101487.59;;;22.51;60.27
74627;BME280;63132;52.268;5.192;2023-07-13T09:42:06;101492.47;;;22.70;59.73
74627;BME280;63132;52.268;5.192;2023-07-13T09:44:42;101488.13;;;23.22;59.35
74627;BME280;63132;52.268;5.192;2023-07-13T09:47:17;101486.81;;;23.76;56.45
74627;BME280;63132;52.268;5.192;2023-07-13T09:49:42;101476.44;;;24.16;55.51
74627;BME280;63132;52.268;5.192;2023-07-13T09:52:15;101481.00;;;24.30;55.28
74627;BME280;63132;52.268;5.192;2023-07-13T09:54:45;101484.28;;;24.54;54.48
74627;BME280;63132;52.268;5.192;2023-07-13T09:57:19;101499.91;;;24.45;54.61
74627;BME280;63132;52.268;5.192;2023-07-13T09:59:50;101491.72;;;24.74;53.64
74627;BME280;63132;52.268;5.192;2023-07-13T10:02:33;101486.69;;;24.42;48.29
74627;BME280;63132;52.268;5.192;2023-07-13T10:05:20;101507.72;;;24.05;49.47
74627;BME280;63132;52.268;5.192;2023-07-13T10:07:47;101499.69;;;24.18;49.62
74627;BME280;63132;52.268;5.192;2023-07-13T10:10:15;101489.41;;;24.42;50.06
74627;BME280;63132;52.268;5.192;2023-07-13T10:12:41;101498.94;;;24.24;49.26
74627;BME280;63132;52.268;5.192;2023-07-13T10:15:12;101508.47;;;23.92;47.65
74627;BME280;63132;52.268;5.192;2023-07-13T10:17:38;101515.66;;;23.56;49.53
74627;BME280;63132;52.268;5.192;2023-07-13T10:20:06;101516.38;;;23.27;48.76
74627;BME280;63132;52.268;5.192;2023-07-13T10:25:20;101514.44;;;22.91;50.45
74627;BME280;63132;52.268;5.192;2023-07-13T10:27:49;101522.94;;;22.88;50.03
74627;BME280;63132;52.268;5.192;2023-07-13T10:30:20;101521.97;;;23.63;49.31
74627;BME280;63132;52.268;5.192;2023-07-13T10:32:48;101511.34;;;24.34;49.23
74627;BME280;63132;52.268;5.192;2023-07-13T10:35:15;101530.53;;;24.04;47.50
74627;BME280;63132;52.268;5.192;2023-07-13T10:37:51;101524.00;;;23.39;47.93
74627;BME280;63132;52.268;5.192;2023-07-13T10:40:27;101526.47;;;23.18;49.43
74627;BME280;63132;52.268;5.192;2023-07-13T10:42:57;101524.91;;;23.61;50.32
74627;BME280;63132;52.268;5.192;2023-07-13T10:45:24;101531.09;;;23.55;48.57
74627;BME280;63132;52.268;5.192;2023-07-13T10:47:52;101534.97;;;23.89;49.04
74627;BME280;63132;52.268;5.192;2023-07-13T10:50:25;101546.75;;;23.97;48.71
74627;BME280;63132;52.268;5.192;2023-07-13T10:52:55;101539.03;;;23.57;47.48
74627;BME280;63132;52.268;5.192;2023-07-13T10:55:36;101530.69;;;23.58;47.34
74627;BME280;63132;52.268;5.192;2023-07-13T10:58:18;101538.84;;;24.02;48.52
74627;BME280;63132;52.268;5.192;2023-07-13T11:03:58;101540.22;;;23.91;48.35
74627;BME280;63132;52.268;5.192;2023-07-13T11:09:18;101549.94;;;23.79;46.06
74627;BME280;63132;52.268;5.192;2023-07-13T11:11:43;101557.47;;;23.61;46.23
74627;BME280;63132;52.268;5.192;2023-07-13T11:16:54;101553.91;;;23.61;46.99
74627;BME280;63132;52.268;5.192;2023-07-13T11:24:57;101562.63;;;23.41;47.78
74627;BME280;63132;52.268;5.192;2023-07-13T11:27:37;101557.16;;;23.19;47.05
74627;BME280;63132;52.268;5.192;2023-07-13T11:32:38;101553.66;;;23.56;45.98
74627;BME280;63132;52.268;5.192;2023-07-13T11:35:04;101562.59;;;23.93;46.47
74627;BME280;63132;52.268;5.192;2023-07-13T11:37:30;101553.53;;;24.08;45.28
74627;BME280;63132;52.268;5.192;2023-07-13T11:39:56;101565.94;;;24.17;45.61
74627;BME280;63132;52.268;5.192;2023-07-13T11:42:21;101560.72;;;24.66;45.29
74627;BME280;63132;52.268;5.192;2023-07-13T11:44:49;101561.47;;;24.53;44.71
74627;BME280;63132;52.268;5.192;2023-07-13T11:47:19;101564.97;;;23.81;45.56
74627;BME280;63132;52.268;5.192;2023-07-13T11:49:52;101575.84;;;23.59;45.93
74627;BME280;63132;52.268;5.192;2023-07-13T11:52:23;101566.19;;;23.41;45.89
74627;BME280;63132;52.268;5.192;2023-07-13T11:54:53;101575.63;;;23.61;45.50
74627;BME280;63132;52.268;5.192;2023-07-13T11:59:52;101562.47;;;23.58;45.93
74627;BME280;63132;52.268;5.192;2023-07-13T12:02:31;101568.34;;;23.83;46.59
74627;BME280;63132;52.268;5.192;2023-07-13T12:04:58;101571.16;;;23.38;46.18
74627;BME280;63132;52.268;5.192;2023-07-13T12:07:29;101563.44;;;23.94;45.51
74627;BME280;63132;52.268;5.192;2023-07-13T12:10:17;101562.25;;;24.47;45.39
74627;BME280;63132;52.268;5.192;2023-07-13T12:12:53;101565.75;;;24.19;45.25
74627;BME280;63132;52.268;5.192;2023-07-13T12:15:19;101563.94;;;24.04;45.89
74627;BME280;63132;52.268;5.192;2023-07-13T12:17:47;101569.66;;;24.60;45.44
74627;BME280;63132;52.268;5.192;2023-07-13T12:22:48;101563.50;;;24.80;43.96
74627;BME280;63132;52.268;5.192;2023-07-13T12:25:15;101563.88;;;24.70;45.34
74627;BME280;63132;52.268;5.192;2023-07-13T12:27:40;101563.63;;;24.65;45.43
74627;BME280;63132;52.268;5.192;2023-07-13T12:30:30;101566.41;;;24.78;44.44
74627;BME280;63132;52.268;5.192;2023-07-13T12:33:07;101565.09;;;24.67;45.22
74627;BME280;63132;52.268;5.192;2023-07-13T12:35:40;101564.66;;;24.64;44.22
74627;BME280;63132;52.268;5.192;2023-07-13T12:38:08;101578.25;;;24.13;44.10
74627;BME280;63132;52.268;5.192;2023-07-13T12:40:35;101575.66;;;24.05;43.68
74627;BME280;63132;52.268;5.192;2023-07-13T12:43:02;101588.88;;;24.30;43.75
74627;BME280;63132;52.268;5.192;2023-07-13T12:45:30;101565.94;;;24.97;43.05
74627;BME280;63132;52.268;5.192;2023-07-13T12:47:58;101555.59;;;24.92;41.87
74627;BME280;63132;52.268;5.192;2023-07-13T12:50:39;101577.13;;;24.87;43.31
74627;BME280;63132;52.268;5.192;2023-07-13T12:53:12;101576.31;;;24.29;42.56
74627;BME280;63132;52.268;5.192;2023-07-13T12:55:50;101577.34;;;24.28;43.42
74627;BME280;63132;52.268;5.192;2023-07-13T13:01:01;101564.84;;;24.62;43.30
74627;BME280;63132;52.268;5.192;2023-07-13T13:03:36;101579.75;;;24.66;43.69
74627;BME280;63132;52.268;5.192;2023-07-13T13:06:04;101574.78;;;24.77;43.28
74627;BME280;63132;52.268;5.192;2023-07-13T13:08:35;101578.00;;;24.30;45.67
74627;BME280;63132;52.268;5.192;2023-07-13T13:11:01;101584.88;;;24.54;44.84
74627;BME280;63132;52.268;5.192;2023-07-13T13:13:27;101585.09;;;24.88;43.44
74627;BME280;63132;52.268;5.192;2023-07-13T13:15:52;101579.63;;;24.81;43.78
74627;BME280;63132;52.268;5.192;2023-07-13T13:18:20;101580.31;;;25.33;43.67
74627;BME280;63132;52.268;5.192;2023-07-13T13:20:48;101585.63;;;24.70;44.21
74627;BME280;63132;52.268;5.192;2023-07-13T13:23:15;101587.78;;;24.81;44.76
74627;BME280;63132;52.268;5.192;2023-07-13T13:25:43;101597.66;;;24.10;44.93
74627;BME280;63132;52.268;5.192;2023-07-13T13:28:14;101598.91;;;24.58;45.31
74627;BME280;63132;52.268;5.192;2023-07-13T13:30:41;101605.66;;;24.62;45.12
74627;BME280;63132;52.268;5.192;2023-07-13T13:33:13;101592.81;;;25.13;44.34
74627;BME280;63132;52.268;5.192;2023-07-13T13:35:40;101597.38;;;25.55;43.46